Time;durP1;ratioP1;P1;durP2;ratioP2;P2;SDS_P1;SDS_P2;PMS_P1;PMS_P2;Temp;Humidity;BMP_temperature;BMP_pressure;BME280_temperature;BME280_humidity;BME280_pressure;Samples;Min_cycle;Max_cycle;Signal;HPM_P1;HPM_P2
2021/04/09 00:00:35;;;;;;;11.63;9.07;;;2.90;99.90;;;;;;5011358;28;20191;-76
2021/04/09 00:03:00;;;;;;;12.77;9.33;;;3.00;99.90;;;;;;5010677;28;20183;-75
2021/04/09 00:05:26;;;;;;;13.43;9.40;;;3.10;99.90;;;;;;5010858;28;20182;-77
2021/04/09 00:07:52;;;;;;;13.43;8.70;;;3.10;99.90;;;;;;4994128;28;20237;-78
2021/04/09 00:10:21;;;;;;;12.33;8.53;;;3.10;99.90;;;;;;4978066;28;20285;-75
2021/04/09 00:12:46;;;;;;;13.17;8.87;;;3.10;99.90;;;;;;4994585;28;20321;-77
2021/04/09 00:15:12;;;;;;;11.80;9.17;;;3.10;99.90;;;;;;4994526;28;20274;-75
2021/04/09 00:17:38;;;;;;;12.67;9.47;;;3.10;99.90;;;;;;5011660;28;20182;-75
2021/04/09 00:20:05;;;;;;;14.63;9.53;;;3.20;99.90;;;;;;4978226;28;20203;-75
2021/04/09 00:22:30;;;;;;;12.87;9.20;;;3.20;99.90;;;;;;5010429;28;20219;-77
2021/04/09 00:24:56;;;;;;;11.37;8.60;;;3.20;99.90;;;;;;4995974;28;20267;-75
2021/04/09 00:27:21;;;;;;;12.90;8.47;;;3.30;99.90;;;;;;5014030;28;20184;-75
2021/04/09 00:29:47;;;;;;;14.47;9.43;;;3.30;99.90;;;;;;5014218;28;20251;-75
2021/04/09 00:32:12;;;;;;;15.07;9.50;;;3.30;99.90;;;;;;4981725;28;20209;-77
2021/04/09 00:34:38;;;;;;;14.97;9.17;;;3.30;99.90;;;;;;5015434;28;20183;-75
2021/04/09 00:37:03;;;;;;;12.60;9.03;;;3.30;99.90;;;;;;5013904;28;20586;-75
2021/04/09 00:39:29;;;;;;;13.03;9.47;;;3.30;99.90;;;;;;5015211;28;20647;-74
2021/04/09 00:41:54;;;;;;;10.77;8.80;;;3.30;99.90;;;;;;4997536;28;20194;-75
2021/04/09 00:44:20;;;;;;;16.77;9.27;;;3.30;99.90;;;;;;4997937;28;20305;-78
2021/04/09 00:46:46;;;;;;;13.63;8.87;;;3.30;99.90;;;;;;5013905;28;20209;-76
2021/04/09 00:49:12;;;;;;;15.13;8.80;;;3.30;99.90;;;;;;4981302;28;20575;-76
2021/04/09 00:51:37;;;;;;;15.50;10.00;;;3.20;99.90;;;;;;5014110;28;20595;-77
2021/04/09 00:54:06;;;;;;;12.43;9.20;;;3.20;99.90;;;;;;4997375;28;20265;-75
2021/04/09 00:56:32;;;;;;;15.30;8.77;;;3.10;99.90;;;;;;4997394;28;20181;-78
2021/04/09 00:58:58;;;;;;;14.07;8.60;;;3.00;99.90;;;;;;4997226;28;20203;-75
2021/04/09 01:01:24;;;;;;;16.20;9.57;;;3.00;99.90;;;;;;4997558;28;20185;-76
2021/04/09 01:03:51;;;;;;;12.40;9.07;;;3.10;99.90;;;;;;4997481;28;20232;-75
2021/04/09 01:06:18;;;;;;;13.30;8.97;;;2.90;99.90;;;;;;4981190;28;20618;-74
2021/04/09 01:08:44;;;;;;;13.13;9.47;;;3.00;99.90;;;;;;5013324;28;20710;-75
2021/04/09 01:11:09;;;;;;;14.60;9.03;;;3.00;99.90;;;;;;4997073;28;20215;-74
2021/04/09 01:13:35;;;;;;;13.40;8.63;;;3.10;99.90;;;;;;4997162;28;20180;-75
2021/04/09 01:16:01;;;;;;;14.63;9.10;;;3.10;99.90;;;;;;4997010;28;20443;-75
2021/04/09 01:18:46;;;;;;;13.03;8.37;;;3.00;99.90;;;;;;4980786;28;20213;-75
2021/04/09 01:21:26;;;;;;;13.70;8.53;;;3.10;99.90;;;;;;4999516;28;20254;-75
2021/04/09 01:24:13;;;;;;;13.80;8.67;;;3.10;99.90;;;;;;5014586;28;20283;-78
2021/04/09 01:27:07;;;;;;;11.37;8.57;;;3.20;99.90;;;;;;5014293;28;20187;-75
2021/04/09 01:29:48;;;;;;;16.83;8.43;;;3.10;99.90;;;;;;4999181;28;20215;-75
2021/04/09 01:32:13;;;;;;;11.77;8.47;;;3.20;99.90;;;;;;5013004;28;20207;-75
2021/04/09 01:34:47;;;;;;;14.40;8.67;;;3.20;99.90;;;;;;4980651;28;20664;-75
2021/04/09 01:37:23;;;;;;;15.13;8.67;;;3.20;99.90;;;;;;4996493;28;20180;-77
2021/04/09 01:39:52;;;;;;;15.97;9.03;;;3.30;99.90;;;;;;4997183;28;20214;-75
2021/04/09 01:42:18;;;;;;;14.33;8.73;;;3.40;99.90;;;;;;4996733;28;20207;-80
2021/04/09 01:44:46;;;;;;;14.07;9.20;;;3.40;99.90;;;;;;4980328;28;20183;-80
2021/04/09 01:47:12;;;;;;;13.50;8.63;;;3.40;99.90;;;;;;4980054;28;20210;-77
2021/04/09 01:49:38;;;;;;;13.47;8.20;;;3.30;99.90;;;;;;4996649;28;20682;-75
2021/04/09 01:52:05;;;;;;;15.57;8.53;;;3.30;99.90;;;;;;4996264;28;20225;-75
2021/04/09 01:54:30;;;;;;;15.07;8.77;;;3.30;99.90;;;;;;4996711;28;20724;-77
2021/04/09 01:56:56;;;;;;;12.77;8.40;;;3.30;99.90;;;;;;4979811;28;20214;-75
2021/04/09 01:59:21;;;;;;;12.87;8.57;;;3.30;99.90;;;;;;4996400;28;20257;-77
2021/04/09 02:01:48;;;;;;;12.43;8.57;;;3.30;99.90;;;;;;4996144;28;20185;-77
2021/04/09 02:04:16;;;;;;;12.10;8.13;;;3.30;99.90;;;;;;4980051;28;20555;-75
2021/04/09 02:06:41;;;;;;;15.53;7.70;;;3.40;99.90;;;;;;4996218;28;20183;-77
2021/04/09 02:09:07;;;;;;;12.57;7.93;;;3.40;99.90;;;;;;4996019;28;20262;-77
2021/04/09 02:11:34;;;;;;;13.27;8.27;;;3.40;99.90;;;;;;4995992;28;20627;-79
2021/04/09 02:13:59;;;;;;;12.73;8.03;;;3.40;99.90;;;;;;4996263;28;20547;-75
2021/04/09 02:16:25;;;;;;;14.70;8.37;;;3.50;99.90;;;;;;4995838;28;20187;-77
2021/04/09 02:18:50;;;;;;;13.03;8.10;;;3.60;99.90;;;;;;4995539;28;20205;-75
2021/04/09 02:21:16;;;;;;;10.40;7.80;;;3.60;99.90;;;;;;5012247;28;20187;-75
2021/04/09 02:23:41;;;;;;;13.50;8.20;;;3.60;99.90;;;;;;4995895;28;20194;-75
2021/04/09 02:26:07;;;;;;;12.97;8.30;;;3.60;99.90;;;;;;5012171;28;20178;-77
2021/04/09 02:28:33;;;;;;;10.50;7.30;;;3.60;99.90;;;;;;5011810;28;20224;-75
2021/04/09 02:31:11;;;;;;;13.50;7.80;;;3.70;99.90;;;;;;4995595;28;20213;-74
2021/04/09 02:33:36;;;;;;;12.73;8.30;;;3.70;99.90;;;;;;4997301;28;20185;-75
2021/04/09 02:36:12;;;;;;;11.67;8.03;;;3.60;99.90;;;;;;4995672;28;20265;-75
2021/04/09 02:38:39;;;;;;;11.33;7.30;;;3.80;99.90;;;;;;4995311;28;20205;-76
2021/04/09 02:41:05;;;;;;;12.57;8.50;;;3.70;99.90;;;;;;4995503;28;20666;-75
2021/04/09 02:43:30;;;;;;;13.77;7.43;;;3.70;99.90;;;;;;4979612;28;20464;-74
2021/04/09 02:45:56;;;;;;;14.10;7.77;;;3.80;99.90;;;;;;5011792;28;20182;-75
2021/04/09 02:48:28;;;;;;;11.43;7.23;;;3.80;99.90;;;;;;4994723;28;20182;-75
2021/04/09 02:50:53;;;;;;;12.30;7.50;;;3.80;99.90;;;;;;4995930;28;20207;-77
2021/04/09 02:53:21;;;;;;;13.13;7.97;;;3.80;99.90;;;;;;4995283;28;20638;-75
2021/04/09 02:55:47;;;;;;;10.73;7.30;;;3.80;99.90;;;;;;4994904;28;20175;-75
2021/04/09 02:58:14;;;;;;;14.63;7.40;;;3.90;99.90;;;;;;4995032;28;20171;-75
2021/04/09 03:00:44;;;;;;;13.60;7.73;;;3.90;99.90;;;;;;4995316;28;20171;-75
2021/04/09 03:03:10;;;;;;;11.30;7.40;;;3.90;99.90;;;;;;4979122;28;20210;-76
2021/04/09 03:05:36;;;;;;;13.40;7.27;;;3.90;99.90;;;;;;5011577;28;20520;-75
2021/04/09 03:08:02;;;;;;;12.77;6.83;;;4.00;99.90;;;;;;4994889;28;20182;-75
2021/04/09 03:10:27;;;;;;;9.70;6.90;;;4.00;99.90;;;;;;4994750;28;20218;-75
2021/04/09 03:12:53;;;;;;;13.20;6.87;;;4.00;99.90;;;;;;4978720;28;20181;-75
2021/04/09 03:15:26;;;;;;;11.90;6.83;;;4.00;99.90;;;;;;5011393;28;20608;-76
2021/04/09 03:17:57;;;;;;;13.03;6.40;;;4.10;99.90;;;;;;4994628;28;20178;-78
2021/04/09 03:20:22;;;;;;;10.23;6.60;;;4.00;99.90;;;;;;4995045;28;20195;-79
2021/04/09 03:22:48;;;;;;;11.77;6.77;;;4.10;99.90;;;;;;4978517;28;20186;-81
2021/04/09 03:25:14;;;;;;;12.43;7.03;;;4.20;99.90;;;;;;4978476;28;20579;-77
2021/04/09 03:27:39;;;;;;;12.53;6.37;;;4.20;99.90;;;;;;4978472;28;20292;-75
2021/04/09 03:30:05;;;;;;;12.33;6.80;;;4.20;99.90;;;;;;4994501;28;20564;-78
2021/04/09 03:32:31;;;;;;;10.63;7.10;;;4.10;99.90;;;;;;5010953;28;20185;-77
2021/04/09 03:34:56;;;;;;;10.23;5.77;;;4.20;99.90;;;;;;4994730;28;20175;-80
2021/04/09 03:37:22;;;;;;;12.47;7.20;;;4.20;99.90;;;;;;4978168;28;20176;-77
2021/04/09 03:39:47;;;;;;;12.30;6.73;;;4.30;99.90;;;;;;4994808;28;20290;-77
2021/04/09 03:42:13;;;;;;;10.00;6.23;;;4.30;99.90;;;;;;4994479;28;20282;-77
2021/04/09 03:44:38;;;;;;;14.53;7.10;;;4.30;99.90;;;;;;5010835;28;20289;-77
2021/04/09 03:47:04;;;;;;;11.60;6.30;;;4.20;99.90;;;;;;5010651;28;20294;-77
2021/04/09 03:49:30;;;;;;;10.10;6.70;;;4.30;99.90;;;;;;4994571;28;20208;-77
2021/04/09 03:51:55;;;;;;;11.37;6.40;;;4.20;99.90;;;;;;5010676;28;20207;-77
2021/04/09 03:54:21;;;;;;;11.23;6.50;;;4.20;99.90;;;;;;4994548;28;20175;-80
2021/04/09 03:56:46;;;;;;;14.10;6.50;;;4.20;99.90;;;;;;4994431;28;20181;-81
2021/04/09 03:59:12;;;;;;;9.97;6.20;;;4.40;99.90;;;;;;5011102;28;20195;-77
2021/04/09 04:01:37;;;;;;;9.40;5.90;;;4.30;99.90;;;;;;5014630;28;20529;-77
2021/04/09 04:04:03;;;;;;;12.17;6.40;;;4.40;99.90;;;;;;4998349;28;20725;-80
2021/04/09 04:06:29;;;;;;;12.63;6.80;;;4.30;99.90;;;;;;5014765;28;20238;-77
2021/04/09 04:08:54;;;;;;;11.43;6.60;;;4.30;99.90;;;;;;4997895;28;20207;-77
2021/04/09 04:11:20;;;;;;;9.90;6.00;;;4.20;99.90;;;;;;5014471;28;20214;-77
2021/04/09 04:13:45;;;;;;;11.13;6.27;;;4.30;99.90;;;;;;4998074;28;20177;-78
2021/04/09 04:16:11;;;;;;;12.50;6.73;;;4.20;99.90;;;;;;5015682;28;20179;-77
2021/04/09 04:18:36;;;;;;;11.20;6.60;;;4.20;99.90;;;;;;4997804;28;20197;-77
2021/04/09 04:21:02;;;;;;;9.00;5.97;;;4.30;99.90;;;;;;4998122;28;20182;-78
2021/04/09 04:23:27;;;;;;;9.87;6.50;;;4.30;99.90;;;;;;4981903;28;20270;-77
2021/04/09 04:25:53;;;;;;;14.63;6.47;;;4.40;99.90;;;;;;5015475;28;20198;-77
2021/04/09 04:28:20;;;;;;;8.90;6.13;;;4.40;99.90;;;;;;5013815;28;20186;-77
2021/04/09 04:30:51;;;;;;;11.80;6.10;;;4.40;99.90;;;;;;4997772;28;20661;-77
2021/04/09 04:33:18;;;;;;;9.80;6.43;;;4.30;99.90;;;;;;5014207;28;20543;-77
2021/04/09 04:35:43;;;;;;;13.70;6.70;;;4.30;99.90;;;;;;4997946;28;20202;-77
2021/04/09 04:38:09;;;;;;;15.20;6.87;;;4.40;99.90;;;;;;4997322;28;20611;-77
2021/04/09 04:40:35;;;;;;;11.07;6.07;;;4.40;99.90;;;;;;4979469;28;20198;-77
2021/04/09 04:43:00;;;;;;;10.13;6.10;;;4.30;99.90;;;;;;4997178;28;20190;-78
2021/04/09 04:45:26;;;;;;;13.47;6.97;;;4.40;99.90;;;;;;5013453;28;20257;-80
2021/04/09 04:47:51;;;;;;;15.40;6.50;;;4.40;99.90;;;;;;5013589;28;20181;-77
2021/04/09 04:50:17;;;;;;;9.63;6.10;;;4.40;99.90;;;;;;4997156;28;20252;-77
2021/04/09 04:52:42;;;;;;;9.67;6.40;;;4.40;99.90;;;;;;4996843;28;20724;-77
2021/04/09 04:55:09;;;;;;;9.90;6.20;;;4.40;99.90;;;;;;5013325;28;20184;-80
2021/04/09 04:57:34;;;;;;;8.27;6.10;;;4.40;99.90;;;;;;4997231;28;20184;-79
2021/04/09 05:00:00;;;;;;;11.83;6.73;;;4.40;99.90;;;;;;4997042;28;20281;-78
2021/04/09 05:02:25;;;;;;;10.13;6.70;;;4.30;99.90;;;;;;5010811;28;20182;-77
2021/04/09 05:04:51;;;;;;;14.00;6.93;;;4.40;99.90;;;;;;4997098;28;20191;-77
2021/04/09 05:07:16;;;;;;;9.60;6.67;;;4.40;99.90;;;;;;5013133;28;20241;-80
2021/04/09 05:09:42;;;;;;;12.07;6.13;;;4.50;99.90;;;;;;4996323;28;20214;-77
2021/04/09 05:12:08;;;;;;;9.93;6.37;;;4.40;99.90;;;;;;4971658;28;20255;-77
2021/04/09 05:14:33;;;;;;;12.37;6.67;;;4.40;99.90;;;;;;4972880;28;20538;-77
2021/04/09 05:16:59;;;;;;;10.50;6.20;;;4.50;99.90;;;;;;4996391;28;20171;-77
2021/04/09 05:19:25;;;;;;;11.67;6.30;;;4.50;99.90;;;;;;5012941;28;20763;-80
2021/04/09 05:21:50;;;;;;;10.53;6.37;;;4.50;99.90;;;;;;5013156;28;20182;-77
2021/04/09 05:24:16;;;;;;;12.53;6.60;;;4.50;99.90;;;;;;5012380;28;20222;-78
2021/04/09 05:26:41;;;;;;;12.47;6.47;;;4.60;99.90;;;;;;4995866;28;20185;-77
2021/04/09 05:29:07;;;;;;;14.90;6.87;;;4.50;99.90;;;;;;5014248;28;20206;-80
2021/04/09 05:31:33;;;;;;;13.37;6.60;;;4.60;99.90;;;;;;5013104;28;20232;-78
2021/04/09 05:33:59;;;;;;;9.63;6.33;;;4.60;99.90;;;;;;5013151;28;20269;-77
2021/04/09 05:36:24;;;;;;;9.60;6.37;;;4.70;99.90;;;;;;5012763;28;20265;-78
2021/04/09 05:38:50;;;;;;;12.83;6.93;;;4.70;99.90;;;;;;5011835;28;20284;-76
2021/04/09 05:41:15;;;;;;;9.43;6.50;;;4.70;99.90;;;;;;4980123;28;20195;-78
2021/04/09 05:43:41;;;;;;;10.20;6.70;;;4.80;99.90;;;;;;4996594;28;20242;-76
2021/04/09 05:46:06;;;;;;;11.10;7.00;;;4.80;99.90;;;;;;5014122;28;20185;-77
2021/04/09 05:48:32;;;;;;;9.97;6.47;;;4.90;99.90;;;;;;4996106;28;20765;-78
2021/04/09 05:50:58;;;;;;;10.73;6.43;;;4.90;99.90;;;;;;4996253;28;20211;-80
2021/04/09 05:53:23;;;;;;;10.70;6.57;;;4.90;99.90;;;;;;5012634;28;20181;-74
2021/04/09 05:55:49;;;;;;;10.83;6.30;;;5.00;99.90;;;;;;4979861;28;20250;-74
2021/04/09 05:58:15;;;;;;;13.07;6.33;;;5.10;99.90;;;;;;4977635;28;20176;-74
2021/04/09 06:00:40;;;;;;;11.07;7.07;;;5.00;99.90;;;;;;4995985;28;20164;-74
2021/04/09 06:03:06;;;;;;;9.10;6.23;;;5.20;99.90;;;;;;4995602;28;20179;-74
2021/04/09 06:05:32;;;;;;;10.13;5.83;;;5.30;99.90;;;;;;4996149;28;20181;-75
2021/04/09 06:07:58;;;;;;;13.63;7.30;;;5.40;99.90;;;;;;4986111;28;20647;-77
2021/04/09 06:10:24;;;;;;;17.17;6.73;;;5.40;99.90;;;;;;5010765;28;20566;-78
2021/04/09 06:12:50;;;;;;;17.00;7.07;;;5.50;99.90;;;;;;5012168;28;20232;-75
2021/04/09 06:15:15;;;;;;;12.40;7.03;;;5.70;99.90;;;;;;4991803;28;20212;-76
2021/04/09 06:17:42;;;;;;;13.60;7.17;;;5.80;99.90;;;;;;4994708;28;20190;-76
2021/04/09 06:20:08;;;;;;;11.97;6.50;;;5.80;99.90;;;;;;5014978;28;20191;-76
2021/04/09 06:22:35;;;;;;;10.97;6.87;;;5.90;99.90;;;;;;5012132;28;20185;-74
2021/04/09 06:28:21;;;;;;;12.93;6.63;;;6.30;99.90;;;;;;4966089;28;20283;-76
2021/04/09 06:30:47;;;;;;;10.70;6.43;;;6.70;99.90;;;;;;4930195;28;20193;-78
2021/04/09 06:33:12;;;;;;;11.03;6.80;;;6.90;99.90;;;;;;4964273;28;20187;-79
2021/04/09 06:35:38;;;;;;;12.77;7.20;;;7.50;99.90;;;;;;5015446;28;20534;-79
2021/04/09 06:38:03;;;;;;;11.37;6.73;;;7.90;99.90;;;;;;5014172;28;20167;-77
2021/04/09 06:40:29;;;;;;;10.77;6.57;;;8.40;99.90;;;;;;4997257;28;20218;-76
2021/04/09 06:42:55;;;;;;;9.80;6.43;;;9.00;99.90;;;;;;4994424;28;20701;-74
2021/04/09 06:45:20;;;;;;;10.77;6.77;;;9.60;99.90;;;;;;5013646;28;20187;-76
2021/04/09 06:47:46;;;;;;;13.03;6.57;;;9.90;99.90;;;;;;5017020;28;20242;-77
2021/04/09 06:50:12;;;;;;;17.90;6.60;;;9.50;99.90;;;;;;5003562;28;20201;-75
2021/04/09 06:52:38;;;;;;;11.13;5.90;;;9.60;99.90;;;;;;5023130;28;20210;-76
2021/04/09 06:55:03;;;;;;;12.17;6.50;;;9.60;99.90;;;;;;5009572;28;20172;-77
2021/04/09 06:57:29;;;;;;;14.10;6.27;;;9.80;99.90;;;;;;5017954;28;20658;-75
2021/04/09 06:59:57;;;;;;;12.20;6.50;;;9.50;99.90;;;;;;5006798;28;20222;-77
2021/04/09 07:02:23;;;;;;;11.73;5.93;;;9.60;99.90;;;;;;5014444;28;20193;-78
2021/04/09 07:04:48;;;;;;;13.67;6.93;;;10.30;99.90;;;;;;5027253;28;20198;-77
2021/04/09 07:07:17;;;;;;;11.13;6.67;;;10.60;99.90;;;;;;4995156;28;20188;-75
2021/04/09 07:09:43;;;;;;;11.10;6.43;;;11.50;99.90;;;;;;5005057;28;20209;-76
2021/04/09 07:12:30;;;;;;;10.10;6.40;;;12.00;99.90;;;;;;4997103;28;20302;-75
2021/04/09 07:14:59;;;;;;;11.47;6.30;;;12.30;99.90;;;;;;5000258;28;20242;-75
2021/04/09 07:17:28;;;;;;;10.97;6.60;;;11.30;99.90;;;;;;5019335;28;20207;-80
2021/04/09 07:20:07;;;;;;;11.73;6.43;;;10.80;99.90;;;;;;5025340;28;20578;-82
2021/04/09 07:22:32;;;;;;;15.37;7.43;;;10.30;99.90;;;;;;5014841;28;20188;-82
2021/04/09 07:25:27;;;;;;;10.13;6.63;;;9.80;99.90;;;;;;4983780;28;20241;-77
2021/04/09 07:28:12;;;;;;;12.97;6.40;;;9.50;99.90;;;;;;4995632;28;20179;-76
2021/04/09 07:30:39;;;;;;;12.53;7.00;;;9.20;99.90;;;;;;5009410;28;20212;-75
2021/04/09 07:33:09;;;;;;;7.70;5.70;;;8.90;99.90;;;;;;5010775;28;20175;-76
2021/04/09 07:35:56;;;;;;;11.27;6.77;;;9.00;99.90;;;;;;4962704;28;20271;-76
2021/04/09 07:38:29;;;;;;;9.97;6.67;;;9.00;99.90;;;;;;4974929;28;20242;-76
2021/04/09 07:41:01;;;;;;;9.90;6.10;;;9.20;99.90;;;;;;4959506;28;20203;-74
2021/04/09 07:43:30;;;;;;;8.83;6.83;;;9.40;99.90;;;;;;4991070;28;20181;-74
2021/04/09 07:45:57;;;;;;;9.70;6.50;;;9.50;99.90;;;;;;4991148;28;20176;-76
2021/04/09 07:48:38;;;;;;;12.73;6.17;;;9.50;99.90;;;;;;5002309;28;20180;-75
2021/04/09 07:51:05;;;;;;;15.23;6.40;;;9.50;99.90;;;;;;5009121;28;20199;-74
2021/04/09 07:53:31;;;;;;;12.83;6.83;;;9.60;99.90;;;;;;5007975;28;20182;-75
2021/04/09 07:56:09;;;;;;;10.10;6.57;;;9.80;99.90;;;;;;5014019;28;20171;-74
2021/04/09 07:58:35;;;;;;;10.70;6.27;;;9.60;99.90;;;;;;5010428;28;20187;-77
2021/04/09 08:01:01;;;;;;;10.93;6.27;;;9.40;99.90;;;;;;5010902;28;20721;-82
2021/04/09 08:03:36;;;;;;;11.67;6.43;;;9.60;99.90;;;;;;4996526;28;20180;-79
2021/04/09 08:06:05;;;;;;;9.37;6.03;;;9.80;99.90;;;;;;5012391;28;20294;-78
2021/04/09 08:08:30;;;;;;;10.23;6.20;;;9.90;99.90;;;;;;5012450;28;20681;-78
2021/04/09 08:11:15;;;;;;;11.43;6.40;;;10.10;99.90;;;;;;4978911;28;20204;-81
2021/04/09 08:13:41;;;;;;;11.37;6.03;;;10.30;99.90;;;;;;4983006;28;20200;-77
2021/04/09 08:16:06;;;;;;;12.50;6.43;;;10.50;99.90;;;;;;4999836;28;20202;-79
2021/04/09 08:18:32;;;;;;;13.17;7.07;;;10.50;99.90;;;;;;5000037;28;20197;-78
2021/04/09 08:20:57;;;;;;;9.67;6.07;;;10.70;99.90;;;;;;4997770;28;20261;-79
2021/04/09 08:23:23;;;;;;;12.47;6.60;;;10.80;99.90;;;;;;5005472;28;20282;-78
2021/04/09 08:25:48;;;;;;;10.73;6.60;;;10.90;99.90;;;;;;5015088;28;20202;-79
2021/04/09 08:28:14;;;;;;;10.43;6.30;;;11.00;99.90;;;;;;5026899;28;20188;-77
2021/04/09 08:30:40;;;;;;;11.73;5.70;;;11.30;99.90;;;;;;4999748;28;20269;-78
2021/04/09 08:33:07;;;;;;;8.73;5.37;;;11.40;99.90;;;;;;5015092;28;20175;-79
2021/04/09 08:35:32;;;;;;;7.70;5.47;;;11.40;99.90;;;;;;4999251;28;20709;-79
2021/04/09 08:37:59;;;;;;;7.70;4.93;;;11.50;99.90;;;;;;4989969;28;20261;-79
2021/04/09 08:40:24;;;;;;;9.97;5.30;;;11.30;99.90;;;;;;4993088;28;20710;-79
2021/04/09 08:42:50;;;;;;;10.70;5.50;;;11.30;99.90;;;;;;4977147;28;20183;-81
2021/04/09 08:45:15;;;;;;;9.80;6.10;;;11.20;99.90;;;;;;4993921;28;20179;-83
2021/04/09 08:47:41;;;;;;;8.93;5.47;;;11.30;99.90;;;;;;4983076;28;20669;-79
2021/04/09 08:50:09;;;;;;;10.83;5.13;;;11.80;99.90;;;;;;5014981;28;20199;-79
2021/04/09 08:52:38;;;;;;;8.23;5.70;;;11.90;99.90;;;;;;5016880;28;20680;-79
2021/04/09 08:55:04;;;;;;;7.87;4.53;;;12.00;99.90;;;;;;4999931;28;20166;-77
2021/04/09 08:57:37;;;;;;;9.23;4.53;;;11.90;99.90;;;;;;4983372;28;20179;-79
2021/04/09 09:00:18;;;;;;;9.67;4.73;;;12.00;99.90;;;;;;5016760;28;20204;-79
2021/04/09 09:02:45;;;;;;;8.17;4.57;;;12.00;99.90;;;;;;5036154;28;20178;-79
2021/04/09 09:05:16;;;;;;;8.97;4.70;;;11.80;99.90;;;;;;5019589;28;20591;-80
2021/04/09 09:07:53;;;;;;;7.23;4.30;;;11.90;99.90;;;;;;5015936;28;20247;-80
2021/04/09 09:10:22;;;;;;;7.63;4.40;;;12.00;99.90;;;;;;5033305;28;20333;-80
2021/04/09 09:13:03;;;;;;;7.67;4.07;;;12.00;99.90;;;;;;5013789;28;20548;-76
2021/04/09 09:15:44;;;;;;;7.43;3.80;;;12.10;99.90;;;;;;5013934;28;20174;-77
2021/04/09 09:18:24;;;;;;;7.43;3.80;;;11.70;99.90;;;;;;5013674;28;20170;-77
2021/04/09 09:21:05;;;;;;;8.20;4.00;;;11.40;99.90;;;;;;5012537;28;20177;-77
2021/04/09 09:24:01;;;;;;;5.47;3.47;;;11.40;99.90;;;;;;5011150;28;20216;-77
2021/04/09 09:26:46;;;;;;;6.63;3.70;;;11.20;99.90;;;;;;4998342;28;20702;-76
2021/04/09 09:29:17;;;;;;;9.47;4.07;;;11.40;99.90;;;;;;5009834;28;20224;-75
2021/04/09 09:31:49;;;;;;;8.87;4.00;;;11.80;99.90;;;;;;4979178;28;20207;-75
2021/04/09 09:34:20;;;;;;;7.27;4.20;;;11.90;99.90;;;;;;5010321;28;20198;-75
2021/04/09 09:37:19;;;;;;;7.07;3.73;;;12.00;99.90;;;;;;5014158;28;20194;-75
2021/04/09 09:40:05;;;;;;;8.13;3.60;;;12.10;99.90;;;;;;5012943;28;20241;-75
2021/04/09 09:42:30;;;;;;;7.07;3.40;;;12.20;99.90;;;;;;4982664;28;20181;-75
2021/04/09 09:45:06;;;;;;;8.07;3.00;;;12.10;99.90;;;;;;5014432;28;20192;-78
2021/04/09 09:47:37;;;;;;;4.77;2.93;;;12.10;99.90;;;;;;4993942;28;20189;-78
2021/04/09 09:52:52;;;;;;;4.50;3.00;;;12.10;99.90;;;;;;5020830;28;20200;-78
2021/04/09 09:55:22;;;;;;;3.60;2.53;;;11.70;99.90;;;;;;5014927;28;20651;-77
2021/04/09 09:58:05;;;;;;;4.00;2.43;;;12.00;99.90;;;;;;5013747;28;20187;-78
2021/04/09 10:00:31;;;;;;;4.20;2.37;;;12.80;99.90;;;;;;4977504;28;20607;-77
2021/04/09 10:03:20;;;;;;;3.00;2.17;;;13.20;99.90;;;;;;4989107;28;20174;-75
2021/04/09 10:05:51;;;;;;;5.30;2.67;;;13.30;99.90;;;;;;5019514;28;20188;-78
2021/04/09 10:08:17;;;;;;;3.90;2.20;;;13.40;99.90;;;;;;4993013;28;20176;-78
2021/04/09 10:10:51;;;;;;;7.87;2.80;;;13.80;99.90;;;;;;5003077;28;20206;-74
2021/04/09 10:13:26;;;;;;;5.50;2.93;;;13.50;99.90;;;;;;5032013;28;20238;-76
2021/04/09 10:15:54;;;;;;;5.13;2.33;;;14.10;99.90;;;;;;5014048;28;20308;-76
2021/04/09 10:18:19;;;;;;;4.53;1.90;;;14.30;99.90;;;;;;5013596;28;20213;-71
2021/04/09 10:20:50;;;;;;;4.70;2.50;;;14.20;99.90;;;;;;5026126;28;20212;-73
2021/04/09 10:23:21;;;;;;;4.10;2.50;;;14.60;99.90;;;;;;5013698;28;20229;-72
2021/04/09 10:25:46;;;;;;;4.13;2.00;;;14.30;99.90;;;;;;5014494;28;20194;-76
2021/04/09 10:28:12;;;;;;;3.30;2.37;;;14.30;99.90;;;;;;4995810;28;20561;-76
2021/04/09 10:30:38;;;;;;;2.80;2.00;;;14.40;99.90;;;;;;4975706;28;20605;-76
2021/04/09 10:33:04;;;;;;;3.97;2.40;;;14.70;99.90;;;;;;4978972;28;20262;-77
2021/04/09 10:35:30;;;;;;;9.70;2.03;;;15.00;99.90;;;;;;4975796;28;20583;-77
2021/04/09 10:38:12;;;;;;;2.60;1.60;;;14.30;99.90;;;;;;4976797;28;20176;-77
2021/04/09 10:40:57;;;;;;;3.40;1.50;;;13.80;99.90;;;;;;4994610;28;20225;-76
2021/04/09 10:43:35;;;;;;;3.33;1.60;;;14.20;99.90;;;;;;4994924;28;20184;-73
2021/04/09 10:46:13;;;;;;;2.77;1.57;;;14.10;99.90;;;;;;4980629;28;20183;-75
2021/04/09 10:48:42;;;;;;;2.80;1.90;;;13.80;99.90;;;;;;5010800;28;20207;-75
2021/04/09 10:51:08;;;;;;;2.27;1.70;;;13.20;99.90;;;;;;4995009;28;20241;-75
2021/04/09 10:53:34;;;;;;;3.37;2.23;;;13.10;99.90;;;;;;5011629;28;20183;-75
2021/04/09 10:56:04;;;;;;;3.60;1.90;;;13.10;99.90;;;;;;4979066;28;20187;-76
2021/04/09 10:58:29;;;;;;;3.67;2.10;;;13.20;99.90;;;;;;5021137;28;20713;-75
2021/04/09 11:00:55;;;;;;;2.23;1.80;;;13.30;99.90;;;;;;4978772;28;20220;-74
2021/04/09 11:03:21;;;;;;;3.07;1.87;;;13.40;99.90;;;;;;5010698;28;20233;-74
2021/04/09 11:05:46;;;;;;;2.67;1.70;;;13.80;99.90;;;;;;5011016;28;20179;-74
2021/04/09 11:08:24;;;;;;;3.20;1.77;;;14.00;99.90;;;;;;4993773;28;20179;-74
2021/04/09 11:10:50;;;;;;;3.00;1.90;;;13.70;99.90;;;;;;4996428;28;20230;-74
2021/04/09 11:13:15;;;;;;;3.97;1.90;;;13.60;99.90;;;;;;4978271;28;20338;-74
2021/04/09 11:15:42;;;;;;;4.40;2.07;;;14.00;99.90;;;;;;4994406;28;20595;-74
2021/04/09 11:18:07;;;;;;;3.63;2.00;;;14.00;99.90;;;;;;4994758;28;20172;-74
2021/04/09 11:20:34;;;;;;;3.87;2.17;;;14.30;99.90;;;;;;4994580;28;20214;-74
2021/04/09 11:23:06;;;;;;;4.43;2.30;;;14.50;99.90;;;;;;4977970;28;20194;-74
2021/04/09 11:25:33;;;;;;;5.20;2.47;;;14.30;99.90;;;;;;5012193;28;20254;-74
2021/04/09 11:27:59;;;;;;;5.20;2.60;;;14.40;99.90;;;;;;5010734;28;20233;-74
2021/04/09 11:30:24;;;;;;;5.80;3.37;;;14.30;99.90;;;;;;5010825;28;20233;-74
2021/04/09 11:32:51;;;;;;;4.80;2.50;;;14.10;99.90;;;;;;5010851;28;20581;-74
2021/04/09 11:35:18;;;;;;;5.17;2.30;;;14.10;99.90;;;;;;5010614;28;20310;-74
2021/04/09 11:37:55;;;;;;;3.93;2.60;;;13.60;99.90;;;;;;5010634;28;20179;-74
2021/04/09 11:40:32;;;;;;;8.27;2.83;;;13.20;99.90;;;;;;5010781;28;20210;-74
2021/04/09 11:42:58;;;;;;;3.93;2.73;;;12.90;99.90;;;;;;5012016;28;20179;-74
2021/04/09 11:45:23;;;;;;;4.63;2.70;;;13.00;99.90;;;;;;5010984;28;20652;-74
2021/04/09 11:47:49;;;;;;;3.27;2.80;;;13.00;99.90;;;;;;5010246;28;20546;-74
2021/04/09 11:50:23;;;;;;;5.67;2.93;;;13.00;99.90;;;;;;4994241;28;20206;-74
2021/04/09 11:52:52;;;;;;;4.43;3.20;;;13.10;99.90;;;;;;4978604;28;20278;-74
2021/04/09 11:55:17;;;;;;;6.33;3.50;;;13.30;99.90;;;;;;5010463;28;20191;-74
2021/04/09 11:57:43;;;;;;;5.70;3.40;;;13.50;99.90;;;;;;5010509;28;20175;-74
2021/04/09 12:00:25;;;;;;;4.30;3.30;;;13.60;99.90;;;;;;4993742;28;20204;-74
2021/04/09 12:03:04;;;;;;;3.07;2.47;;;13.70;99.90;;;;;;5009214;28;20592;-74
2021/04/09 12:05:31;;;;;;;6.63;3.30;;;13.60;99.90;;;;;;4970975;28;20185;-74
2021/04/09 12:07:57;;;;;;;7.17;3.20;;;13.30;99.90;;;;;;4991235;28;20176;-74
2021/04/09 12:10:23;;;;;;;4.47;2.83;;;13.40;99.90;;;;;;4993897;28;20198;-74
2021/04/09 12:12:49;;;;;;;4.73;2.90;;;13.70;99.90;;;;;;4994085;28;20172;-74
2021/04/09 12:15:15;;;;;;;4.30;2.93;;;13.50;99.90;;;;;;4974304;28;20640;-74
2021/04/09 12:17:40;;;;;;;5.87;3.00;;;13.60;99.90;;;;;;4974483;28;20216;-74
2021/04/09 12:20:11;;;;;;;5.63;3.20;;;13.70;99.90;;;;;;4993851;28;20226;-74
2021/04/09 12:22:37;;;;;;;5.30;3.20;;;13.40;99.90;;;;;;5010261;28;20189;-74
2021/04/09 12:25:03;;;;;;;6.70;3.00;;;13.30;99.90;;;;;;5020626;28;20218;-74
2021/04/09 12:27:29;;;;;;;5.07;3.20;;;13.30;99.90;;;;;;5014059;28;20194;-74
2021/04/09 12:29:55;;;;;;;7.23;3.40;;;13.30;99.90;;;;;;5014601;28;20578;-74
2021/04/09 12:32:20;;;;;;;5.63;3.40;;;13.30;99.90;;;;;;5016714;28;20213;-73
2021/04/09 12:34:46;;;;;;;6.20;3.43;;;13.30;99.90;;;;;;5021718;28;20186;-76
2021/04/09 12:37:11;;;;;;;7.43;3.60;;;13.50;99.90;;;;;;4997160;28;20269;-75
2021/04/09 12:39:37;;;;;;;8.43;3.77;;;13.90;99.90;;;;;;4993812;28;20199;-74
2021/04/09 12:42:04;;;;;;;5.03;3.20;;;14.10;99.90;;;;;;5012850;28;20209;-75
2021/04/09 12:44:30;;;;;;;8.10;3.70;;;14.20;99.90;;;;;;4994991;28;20315;-74
2021/04/09 12:46:55;;;;;;;4.63;3.33;;;14.10;99.90;;;;;;5010820;28;20223;-74
2021/04/09 12:49:21;;;;;;;5.80;3.33;;;14.30;99.90;;;;;;5012830;28;20669;-74
2021/04/09 12:51:48;;;;;;;7.77;4.00;;;14.80;99.90;;;;;;4997685;28;20230;-74
2021/04/09 12:54:13;;;;;;;7.07;3.70;;;14.80;99.90;;;;;;4997895;28;20553;-75
2021/04/09 12:56:39;;;;;;;7.10;3.80;;;14.70;99.90;;;;;;5013931;28;20176;-74
2021/04/09 12:59:04;;;;;;;5.30;3.63;;;14.70;99.90;;;;;;5012988;28;20214;-75